createdAt,value
2022-08-14T00:01:02.469Z,101320.88
2022-08-14T00:03:37.438Z,101320.69
2022-08-14T00:06:14.101Z,101313.34
2022-08-14T00:08:51.212Z,101301.47
2022-08-14T00:11:19.624Z,101302.31
2022-08-14T00:13:51.742Z,101301.31
2022-08-14T00:16:41.499Z,101292.53
2022-08-14T00:19:21.158Z,101299.66
2022-08-14T00:21:50.911Z,101290.03
2022-08-14T00:24:23.318Z,101295.31
2022-08-14T00:26:55.668Z,101288.56
2022-08-14T00:29:25.214Z,101292.56
2022-08-14T00:31:56.365Z,101292.53
2022-08-14T00:34:37.216Z,101282.28
2022-08-14T00:37:11.274Z,101286.75
2022-08-14T00:39:39.349Z,101275.44
2022-08-14T00:42:07.503Z,101282.34
2022-08-14T00:44:48.529Z,101280.66
2022-08-14T00:47:16.666Z,101270.19
2022-08-14T00:49:44.862Z,101270.66
2022-08-14T00:52:18.242Z,101272.94
2022-08-14T00:54:47.408Z,101272.34
2022-08-14T00:57:14.153Z,101264.78
2022-08-14T00:59:41.307Z,101267.72
2022-08-14T01:02:09.356Z,101260.59
2022-08-14T01:04:38.001Z,101266.44
2022-08-14T01:07:21.724Z,101258.06
2022-08-14T01:10:01.696Z,101261.63
2022-08-14T01:12:40.658Z,101258.69
2022-08-14T01:15:09.434Z,101265.78
2022-08-14T01:17:55.246Z,101263.28
2022-08-14T01:20:41.405Z,101271.47
2022-08-14T01:23:16.625Z,101263.28
2022-08-14T01:25:51.036Z,101251.59
2022-08-14T01:28:34.317Z,101261.63
2022-08-14T01:31:08.689Z,101259.50
2022-08-14T01:34:00.415Z,101262.25
2022-08-14T01:36:29.801Z,101257.00
2022-08-14T01:39:04.082Z,101255.13
2022-08-14T01:41:40.803Z,101258.88
2022-08-14T01:44:32.319Z,101257.22
2022-08-14T01:47:01.309Z,101259.94
2022-08-14T01:49:35.538Z,101250.56
2022-08-14T01:52:03.632Z,101253.88
2022-08-14T01:54:38.131Z,101244.28
2022-08-14T01:57:11.566Z,101245.31
2022-08-14T01:59:43.105Z,101232.13
2022-08-14T02:02:19.587Z,101233.19
2022-08-14T02:04:56.724Z,101233.19
2022-08-14T02:07:34.493Z,101230.47
2022-08-14T02:10:15.527Z,101228.78
2022-08-14T02:12:43.507Z,101222.31
2022-08-14T02:15:11.363Z,101229.41
2022-08-14T02:17:39.180Z,101231.94
2022-08-14T02:20:08.601Z,101226.91
2022-08-14T02:22:35.461Z,101224.19
2022-08-14T02:25:14.124Z,101222.75
2022-08-14T02:28:24.310Z,101207.28
2022-08-14T02:30:31.957Z,101214.38
2022-08-14T02:32:58.824Z,101210.41
2022-08-14T02:35:32.730Z,101209.38
2022-08-14T02:38:00.025Z,101216.47
2022-08-14T02:40:31.845Z,101202.25
2022-08-14T02:43:00.595Z,101209.38
2022-08-14T02:45:38.426Z,101204.97
2022-08-14T02:49:04.728Z,101201.84
2022-08-14T02:51:00.525Z,101192.44
2022-08-14T02:53:27.095Z,101189.50
2022-08-14T02:55:56.400Z,101198.53
2022-08-14T02:58:31.128Z,101182.81
2022-08-14T03:00:59.118Z,101191.41
2022-08-14T03:03:25.957Z,101159.81
2022-08-14T03:05:54.355Z,101189.94
2022-08-14T03:08:22.190Z,101182.19
2022-08-14T03:10:50.281Z,101180.94
2022-08-14T03:13:21.665Z,101166.94
2022-08-14T03:15:55.796Z,101181.16
2022-08-14T03:18:31.583Z,101196.00
2022-08-14T03:21:03.563Z,101193.06
2022-08-14T03:23:38.000Z,101192.66
2022-08-14T03:26:08.525Z,101190.16
2022-08-14T03:28:36.624Z,101159.66
2022-08-14T03:31:04.275Z,101184.31
2022-08-14T03:33:40.280Z,101192.88
2022-08-14T03:37:52.042Z,101190.78
2022-08-14T03:39:12.322Z,101189.94
2022-08-14T03:41:42.777Z,101184.72
2022-08-14T03:45:18.684Z,101188.69
2022-08-14T03:46:56.435Z,101180.97
2022-08-14T03:49:28.581Z,101183.91
2022-08-14T03:51:58.396Z,101173.44
2022-08-14T03:54:28.740Z,101177.22
2022-08-14T03:57:00.580Z,101146.06
2022-08-14T03:59:29.719Z,101166.78
2022-08-14T04:02:01.406Z,101168.22
2022-08-14T04:04:30.573Z,101169.50
2022-08-14T04:06:59.177Z,101173.69
2022-08-14T04:09:27.077Z,101162.59
2022-08-14T04:11:54.439Z,101170.53
2022-08-14T04:14:22.857Z,101154.66
2022-08-14T04:16:50.259Z,101163.22
2022-08-14T04:19:19.305Z,101149.25
2022-08-14T04:22:03.966Z,101142.97
2022-08-14T04:24:37.630Z,101142.53
2022-08-14T04:27:09.991Z,101150.50
2022-08-14T04:29:42.447Z,101150.91
2022-08-14T04:32:59.062Z,101146.91
2022-08-14T04:34:57.463Z,101151.53
2022-08-14T04:37:43.115Z,101152.56
2022-08-14T04:40:29.035Z,101149.00
2022-08-14T04:43:17.370Z,101105.31
2022-08-14T04:45:45.016Z,101137.72
2022-08-14T04:48:39.140Z,101137.94
2022-08-14T04:51:11.721Z,101130.59
2022-08-14T04:53:43.167Z,101122.88
2022-08-14T04:56:31.682Z,101125.38
2022-08-14T04:59:10.273Z,101125.97
2022-08-14T05:01:41.550Z,101123.25
2022-08-14T05:04:16.114Z,101122.16
2022-08-14T05:06:46.925Z,101114.41
2022-08-14T05:09:15.972Z,101116.91
2022-08-14T05:11:44.213Z,101116.28
2022-08-14T05:14:34.473Z,101118.97
2022-08-14T05:17:01.974Z,101120.59
2022-08-14T05:19:29.878Z,101109.09
2022-08-14T05:22:15.912Z,101110.69
2022-08-14T05:24:50.415Z,101093.59
2022-08-14T05:27:23.092Z,101106.50
2022-08-14T05:29:53.258Z,101116.03
2022-08-14T05:32:20.240Z,101114.97
2022-08-14T05:34:46.937Z,101117.63
2022-08-14T05:37:15.321Z,101107.56
2022-08-14T05:39:42.753Z,101125.72
2022-08-14T05:42:09.877Z,101120.59
2022-08-14T05:44:48.392Z,101120.50
2022-08-14T05:47:16.016Z,101119.78
2022-08-14T05:49:43.646Z,101121.78
2022-08-14T05:52:10.630Z,101117.25
2022-08-14T05:54:44.304Z,101107.31
2022-08-14T05:57:10.845Z,101109.31
2022-08-14T05:59:39.571Z,101110.22
2022-08-14T06:02:07.807Z,101107.31
2022-08-14T06:04:36.794Z,101102.75
2022-08-14T06:07:03.489Z,101097.16
2022-08-14T06:09:35.739Z,101095.81
2022-08-14T06:12:10.346Z,101088.56
2022-08-14T06:14:38.701Z,101091.22
2022-08-14T06:17:05.773Z,101093.50
2022-08-14T06:19:32.286Z,101088.16
2022-08-14T06:21:59.595Z,101084.94
2022-08-14T06:24:30.796Z,101083.28
2022-08-14T06:27:06.366Z,101080.69
2022-08-14T06:29:37.954Z,101074.41
2022-08-14T06:32:36.497Z,101084.03
2022-08-14T06:35:02.497Z,101075.63
2022-08-14T06:37:42.416Z,101080.59
2022-08-14T06:40:25.748Z,101073.44
2022-08-14T06:42:55.638Z,101067.88
2022-08-14T06:45:26.402Z,101074.66
2022-08-14T06:47:54.474Z,101086.56
2022-08-14T06:50:28.020Z,101072.22
2022-08-14T06:52:55.949Z,101073.16
2022-08-14T06:55:26.476Z,101069.53
2022-08-14T06:57:55.146Z,101063.34
2022-08-14T07:00:26.903Z,101061.94
2022-08-14T07:03:13.387Z,101068.22
2022-08-14T07:05:55.006Z,101060.25
2022-08-14T07:08:26.387Z,101066.81
2022-08-14T07:11:00.634Z,101058.00
2022-08-14T07:13:28.421Z,101056.00
2022-08-14T07:15:58.383Z,101054.56
2022-08-14T07:18:28.181Z,101061.09
2022-08-14T07:20:56.181Z,101056.75
2022-08-14T07:23:26.537Z,101055.94
2022-08-14T07:25:58.303Z,101048.06
2022-08-14T07:28:45.267Z,101051.75
2022-08-14T07:31:12.615Z,101054.34
2022-08-14T07:33:43.658Z,101054.22
2022-08-14T07:36:26.370Z,101059.28
2022-08-14T07:38:56.185Z,101053.22
2022-08-14T07:41:22.629Z,101045.91
2022-08-14T07:43:55.594Z,101053.81
2022-08-14T07:46:29.321Z,101054.50
2022-08-14T07:48:58.119Z,101058.50
2022-08-14T07:51:26.101Z,101056.69
2022-08-14T07:54:00.762Z,101048.38
2022-08-14T07:56:48.138Z,101057.31
2022-08-14T07:59:18.155Z,101059.13
2022-08-14T08:01:51.356Z,101041.03
2022-08-14T08:04:24.554Z,101052.97
2022-08-14T08:06:52.919Z,101055.09
2022-08-14T08:09:25.216Z,101062.19
2022-08-14T08:12:01.779Z,101053.50
2022-08-14T08:14:34.179Z,101061.59
2022-08-14T08:17:23.265Z,101049.13
2022-08-14T08:19:51.610Z,101050.66
2022-08-14T08:22:18.557Z,101058.75
2022-08-14T08:24:45.037Z,101057.03
2022-08-14T08:27:16.844Z,101057.25
2022-08-14T08:29:50.741Z,101049.75
2022-08-14T08:32:18.409Z,101053.81
2022-08-14T08:34:46.814Z,101052.88
2022-08-14T08:37:14.728Z,101049.69
2022-08-14T08:40:03.144Z,101044.63
2022-08-14T08:42:38.685Z,101048.78
2022-08-14T08:45:11.892Z,101050.19
2022-08-14T08:47:40.481Z,101046.94
2022-08-14T08:53:00.027Z,101037.06
2022-08-14T08:55:42.684Z,101028.34
2022-08-14T08:58:19.776Z,101038.81
2022-08-14T09:00:54.332Z,101032.53
2022-08-14T09:03:25.503Z,101024.03
2022-08-14T09:06:53.868Z,101035.34
2022-08-14T09:08:52.397Z,101036.19
2022-08-14T09:11:21.464Z,101033.22
2022-08-14T09:13:52.973Z,101033.50
2022-08-14T09:16:25.919Z,101028.81
2022-08-14T09:18:54.074Z,101016.94
2022-08-14T09:21:24.297Z,101021.38
2022-08-14T09:24:29.478Z,101021.06
2022-08-14T09:26:43.326Z,101023.19
2022-08-14T09:29:11.170Z,101011.19
2022-08-14T09:31:53.314Z,101014.41
2022-08-14T09:34:47.488Z,101001.81
2022-08-14T09:37:43.901Z,100986.97
2022-08-14T09:40:21.197Z,100997.16
2022-08-14T09:43:07.193Z,100991.66
2022-08-14T09:45:53.559Z,100995.63
2022-08-14T09:48:30.268Z,100994.03
2022-08-14T09:53:34.205Z,100991.66
2022-08-14T09:56:30.138Z,100985.34
2022-08-14T09:59:10.651Z,100982.34
2022-08-14T10:01:37.518Z,100964.91
2022-08-14T10:04:06.966Z,100973.84
2022-08-14T10:06:52.306Z,100967.91
2022-08-14T10:09:19.436Z,100970.03
2022-08-14T10:11:58.883Z,100969.13
2022-08-14T10:14:35.470Z,100943.16
2022-08-14T10:17:06.270Z,100961.75
2022-08-14T10:19:35.632Z,100955.31
2022-08-14T10:23:15.168Z,100957.72
2022-08-14T10:24:57.531Z,100950.97
2022-08-14T10:27:27.109Z,100945.59
2022-08-14T10:30:04.589Z,100948.44
2022-08-14T10:32:51.702Z,100942.25
2022-08-14T10:35:18.942Z,100940.22
2022-08-14T10:37:51.362Z,100936.66
2022-08-14T10:40:38.777Z,100940.97
2022-08-14T10:43:23.951Z,100929.59
2022-08-14T10:46:03.522Z,100926.94
2022-08-14T10:49:04.038Z,100931.50
2022-08-14T10:51:35.316Z,100925.31
2022-08-14T10:54:16.940Z,100921.19
2022-08-14T10:56:57.850Z,100912.53
2022-08-14T10:59:34.892Z,100917.41
2022-08-14T11:02:17.550Z,100918.59
2022-08-14T11:04:44.284Z,100918.31
2022-08-14T11:07:19.249Z,100916.06
2022-08-14T11:10:00.153Z,100901.00
2022-08-14T11:12:40.687Z,100921.59
2022-08-14T11:15:07.951Z,100922.69
2022-08-14T11:17:38.644Z,100922.19
2022-08-14T11:20:13.718Z,100912.34
2022-08-14T11:22:52.297Z,100910.22
2022-08-14T11:25:44.056Z,100917.16
2022-08-14T11:28:18.801Z,100916.22
2022-08-14T11:30:53.686Z,100910.81
2022-08-14T11:33:32.672Z,100907.72
2022-08-14T11:36:01.738Z,100896.88
2022-08-14T11:38:35.803Z,100897.59
2022-08-14T11:41:05.703Z,100870.69
2022-08-14T11:43:57.926Z,100887.94
2022-08-14T11:46:30.292Z,100895.25
2022-08-14T11:49:05.172Z,100884.25
2022-08-14T11:51:47.474Z,100876.75
2022-08-14T11:54:34.461Z,100881.81
2022-08-14T11:57:02.255Z,100864.63
2022-08-14T11:59:33.587Z,100873.78
2022-08-14T12:03:00.141Z,100879.44
2022-08-14T12:05:04.787Z,100871.09
2022-08-14T12:07:36.118Z,100874.28
2022-08-14T12:10:27.216Z,100833.47
2022-08-14T12:12:52.549Z,100872.31
2022-08-14T12:15:29.427Z,100863.56
2022-08-14T12:17:56.383Z,100865.94
2022-08-14T12:20:32.507Z,100825.81
2022-08-14T12:23:01.086Z,100853.50
2022-08-14T12:25:29.312Z,100834.75
2022-08-14T12:27:59.073Z,100853.75
2022-08-14T12:30:44.381Z,100846.84
2022-08-14T12:33:23.781Z,100848.69
2022-08-14T12:35:51.372Z,100841.94
2022-08-14T12:38:54.266Z,100842.41
2022-08-14T12:41:28.068Z,100844.09
2022-08-14T12:44:03.257Z,100833.31
2022-08-14T12:46:35.044Z,100836.75
2022-08-14T12:49:18.651Z,100827.16
2022-08-14T12:51:57.123Z,100832.84
2022-08-14T12:54:28.407Z,100825.22
2022-08-14T12:57:19.517Z,100831.41
2022-08-14T12:59:47.366Z,100815.97
2022-08-14T13:02:27.878Z,100808.97
2022-08-14T13:04:55.878Z,100807.81
2022-08-14T13:07:23.981Z,100796.84
2022-08-14T13:09:56.010Z,100792.50
2022-08-14T13:12:33.159Z,100793.94
2022-08-14T13:15:14.774Z,100780.78
2022-08-14T13:17:47.014Z,100783.91
2022-08-14T13:20:23.523Z,100782.25
2022-08-14T13:22:52.919Z,100770.88
2022-08-14T13:25:22.844Z,100761.22
2022-08-14T13:27:54.993Z,100761.78
2022-08-14T13:30:24.825Z,100750.53
2022-08-14T13:32:57.723Z,100749.50
2022-08-14T13:35:25.508Z,100742.81
2022-08-14T13:37:53.682Z,100744.13
2022-08-14T13:40:26.285Z,100733.44
2022-08-14T13:42:55.273Z,100731.19
2022-08-14T13:45:34.027Z,100725.19
2022-08-14T13:48:27.230Z,100678.88
2022-08-14T13:51:01.906Z,100715.78
2022-08-14T13:53:33.328Z,100690.50
2022-08-14T13:56:01.581Z,100687.91
2022-08-14T13:58:34.614Z,100691.03
2022-08-14T14:01:04.276Z,100701.50
2022-08-14T14:03:35.178Z,100691.06
2022-08-14T14:06:02.881Z,100683.94
2022-08-14T14:08:42.915Z,100694.47
2022-08-14T14:11:11.067Z,100692.00
2022-08-14T14:13:41.807Z,100688.13
2022-08-14T14:16:14.982Z,100673.38
2022-08-14T14:18:43.829Z,100681.38
2022-08-14T14:21:13.938Z,100663.84
2022-08-14T14:23:42.840Z,100656.97
2022-08-14T14:26:14.124Z,100666.28
2022-08-14T14:28:42.629Z,100660.50
2022-08-14T14:31:11.425Z,100661.94
2022-08-14T14:33:46.624Z,100660.72
2022-08-14T14:36:20.823Z,100655.09
2022-08-14T14:38:52.387Z,100621.78
2022-08-14T14:41:24.210Z,100635.19
2022-08-14T14:43:52.258Z,100638.09
2022-08-14T14:46:22.399Z,100627.06
2022-08-14T14:49:06.469Z,100611.63
2022-08-14T14:51:34.952Z,100619.66
2022-08-14T14:54:02.296Z,100635.94
2022-08-14T14:56:48.178Z,100628.28
2022-08-14T14:59:18.300Z,100598.75
2022-08-14T15:01:49.106Z,100622.09
2022-08-14T15:04:20.556Z,100615.69
2022-08-14T15:06:49.105Z,100617.16
2022-08-14T15:09:18.105Z,100622.00
2022-08-14T15:11:45.609Z,100618.91
2022-08-14T15:14:55.706Z,100608.56
2022-08-14T15:16:59.058Z,100608.28
2022-08-14T15:19:27.303Z,100610.88
2022-08-14T15:21:55.295Z,100609.94
2022-08-14T15:24:26.579Z,100608.97
2022-08-14T15:26:54.327Z,100540.00
2022-08-14T15:29:20.759Z,100611.50
2022-08-14T15:31:47.381Z,100603.53
2022-08-14T15:34:44.039Z,100607.41
2022-08-14T15:37:06.635Z,100603.16
2022-08-14T15:39:41.497Z,100567.06
2022-08-14T15:42:15.896Z,100581.25
2022-08-14T15:44:44.769Z,100580.69
2022-08-14T15:47:27.715Z,100580.38
2022-08-14T15:49:56.320Z,100585.63
2022-08-14T15:52:32.394Z,100583.59
2022-08-14T15:55:06.558Z,100596.34
2022-08-14T15:57:34.473Z,100586.00
2022-08-14T16:00:21.583Z,100594.91
2022-08-14T16:03:15.599Z,100591.50
2022-08-14T16:05:43.353Z,100604.97
2022-08-14T16:08:26.871Z,100584.88
2022-08-14T16:10:56.736Z,100591.59
2022-08-14T16:13:41.535Z,100586.66
2022-08-14T16:16:34.386Z,100594.34
2022-08-14T16:19:11.136Z,100562.63
2022-08-14T16:22:01.710Z,100587.28
2022-08-14T16:24:33.542Z,100583.75
2022-08-14T16:27:01.435Z,100584.38
2022-08-14T16:29:31.051Z,100543.81
2022-08-14T16:32:01.782Z,100560.28
2022-08-14T16:34:50.071Z,100571.28
2022-08-14T16:37:21.161Z,100562.38
2022-08-14T16:39:49.300Z,100559.00
2022-08-14T16:42:38.999Z,100558.75
2022-08-14T16:45:02.649Z,100546.91
2022-08-14T16:47:32.005Z,100548.03
2022-08-14T16:50:08.685Z,100545.38
2022-08-14T16:52:44.187Z,100532.25
2022-08-14T16:55:14.244Z,100542.81
2022-08-14T16:57:58.877Z,100547.34
2022-08-14T17:00:44.021Z,100538.88
2022-08-14T17:03:12.453Z,100527.59
2022-08-14T17:05:42.962Z,100534.28
2022-08-14T17:08:31.961Z,100530.81
2022-08-14T17:11:09.725Z,100529.94
2022-08-14T17:13:59.303Z,100515.84
2022-08-14T17:16:38.574Z,100522.03
2022-08-14T17:19:13.965Z,100515.59
2022-08-14T17:21:46.689Z,100517.28
2022-08-14T17:24:58.510Z,100508.13
2022-08-14T17:27:03.631Z,100503.69
2022-08-14T17:29:33.628Z,100511.34
2022-08-14T17:32:07.167Z,100509.84
2022-08-14T17:34:53.881Z,100495.16
2022-08-14T17:37:29.723Z,100501.63
2022-08-14T17:40:01.240Z,100500.66
2022-08-14T17:42:51.785Z,100490.22
2022-08-14T17:45:26.837Z,100484.41
2022-08-14T17:47:59.130Z,100488.34
2022-08-14T17:50:59.564Z,100485.94
2022-08-14T17:53:27.586Z,100493.81
2022-08-14T17:56:02.146Z,100478.00
2022-08-14T17:58:42.146Z,100468.69
2022-08-14T18:01:13.598Z,100494.56
2022-08-14T18:03:50.824Z,100497.97
2022-08-14T18:06:38.468Z,100494.56
2022-08-14T18:09:24.566Z,100493.38
2022-08-14T18:11:54.287Z,100483.03
2022-08-14T18:14:32.264Z,100491.06
2022-08-14T18:17:01.475Z,100488.91
2022-08-14T18:19:30.887Z,100494.44
2022-08-14T18:21:59.386Z,100504.41
2022-08-14T18:24:30.007Z,100498.13
2022-08-14T18:27:23.229Z,100490.72
2022-08-14T18:29:55.482Z,100489.06
2022-08-14T18:32:31.407Z,100506.41
2022-08-14T18:35:03.359Z,100497.34
2022-08-14T18:37:39.346Z,100501.47
2022-08-14T18:40:34.751Z,100508.06
2022-08-14T18:43:03.654Z,100502.50
2022-08-14T18:45:33.273Z,100503.03
2022-08-14T18:48:18.731Z,100500.03
2022-08-14T18:51:02.469Z,100495.59
2022-08-14T18:53:33.985Z,100480.66
2022-08-14T18:56:09.368Z,100493.00
2022-08-14T18:58:57.158Z,100474.53
2022-08-14T19:01:29.783Z,100509.41
2022-08-14T19:03:58.570Z,100496.44
2022-08-14T19:06:44.716Z,100500.25
2022-08-14T19:09:50.720Z,100510.59
2022-08-14T19:12:58.160Z,100503.97
2022-08-14T19:15:31.527Z,100511.00
2022-08-14T19:18:10.539Z,100509.00
2022-08-14T19:20:46.786Z,100502.94
2022-08-14T19:23:18.185Z,100502.06
2022-08-14T19:25:59.413Z,100509.16
2022-08-14T19:28:48.931Z,100511.88
2022-08-14T19:31:42.007Z,100516.13
2022-08-14T19:34:09.214Z,100515.22
2022-08-14T19:37:05.755Z,100514.63
2022-08-14T19:39:54.312Z,100519.81
2022-08-14T19:42:28.276Z,100516.44
2022-08-14T19:44:57.371Z,100523.53
2022-08-14T19:47:41.306Z,100523.53
2022-08-14T19:50:39.023Z,100521.25
2022-08-14T19:53:11.106Z,100510.78
2022-08-14T19:55:39.335Z,100524.47
2022-08-14T19:58:12.949Z,100521.66
2022-08-14T20:00:52.494Z,100518.59
2022-08-14T20:03:23.866Z,100524.91
2022-08-14T20:06:00.582Z,100518.25
2022-08-14T20:10:59.770Z,100522.59
2022-08-14T20:12:00.609Z,100522.34
2022-08-14T20:14:22.974Z,100495.75
2022-08-14T20:17:06.284Z,100522.72
2022-08-14T20:19:38.085Z,100514.22
2022-08-14T20:22:35.564Z,100517.47
2022-08-14T20:25:11.341Z,100513.63
2022-08-14T20:27:40.766Z,100513.50
2022-08-14T20:30:34.063Z,100522.84
2022-08-14T20:33:11.314Z,100517.28
2022-08-14T20:35:43.345Z,100514.28
2022-08-14T20:38:30.777Z,100508.75
2022-08-14T20:41:09.784Z,100515.03
2022-08-14T20:43:59.758Z,100503.97
2022-08-14T20:46:38.633Z,100506.97
2022-08-14T20:49:16.510Z,100508.03
2022-08-14T20:51:59.043Z,100519.72
2022-08-14T20:54:34.721Z,100518.56
2022-08-14T20:57:12.041Z,100525.38
2022-08-14T20:59:53.640Z,100526.94
2022-08-14T21:02:29.502Z,100513.44
2022-08-14T21:05:03.550Z,100515.28
2022-08-14T21:07:50.433Z,100521.50
2022-08-14T21:10:33.909Z,100522.00
2022-08-14T21:13:58.717Z,100517.56
2022-08-14T21:15:57.130Z,100520.19
2022-08-14T21:18:30.573Z,100509.44
2022-08-14T21:21:00.762Z,100514.31
2022-08-14T21:23:32.843Z,100517.81
2022-08-14T21:25:59.805Z,100513.56
2022-08-14T21:28:29.953Z,100511.69
2022-08-14T21:30:57.604Z,100498.44
2022-08-14T21:33:25.103Z,100513.63
2022-08-14T21:35:55.624Z,100507.00
2022-08-14T21:38:33.716Z,100514.06
2022-08-14T21:41:43.352Z,100519.44
2022-08-14T21:44:18.107Z,100509.66
2022-08-14T21:46:55.863Z,100517.91
2022-08-14T21:49:38.221Z,100505.91
2022-08-14T21:52:51.383Z,100514.09
2022-08-14T21:54:58.778Z,100498.25
2022-08-14T21:57:56.389Z,100506.44
2022-08-14T22:00:34.527Z,100495.69
2022-08-14T22:03:05.853Z,100505.91
2022-08-14T22:05:32.964Z,100502.50
2022-08-14T22:08:02.311Z,100505.59
2022-08-14T22:10:29.864Z,100500.06
2022-08-14T22:13:00.653Z,100495.84
2022-08-14T22:15:29.947Z,100497.59
2022-08-14T22:17:58.461Z,100493.34
2022-08-14T22:20:28.707Z,100492.66
2022-08-14T22:22:56.592Z,100489.00
2022-08-14T22:25:33.504Z,100492.09
2022-08-14T22:28:02.886Z,100470.50
2022-08-14T22:30:30.337Z,100480.94
2022-08-14T22:32:58.596Z,100472.78
2022-08-14T22:35:27.726Z,100480.22
2022-08-14T22:38:35.895Z,100467.47
2022-08-14T22:40:57.441Z,100478.94
2022-08-14T22:43:31.686Z,100475.03
2022-08-14T22:46:02.119Z,100468.66
2022-08-14T22:48:29.331Z,100471.03
2022-08-14T22:50:56.022Z,100479.06
2022-08-14T22:53:23.714Z,100463.69
2022-08-14T22:55:52.006Z,100468.56
2022-08-14T22:58:30.131Z,100467.13
2022-08-14T23:01:00.999Z,100469.72
2022-08-14T23:03:29.692Z,100464.75
2022-08-14T23:06:02.099Z,100471.97
2022-08-14T23:09:00.190Z,100469.13
2022-08-14T23:11:15.465Z,100467.38
2022-08-14T23:13:46.305Z,100457.97
2022-08-14T23:16:19.870Z,100454.50
2022-08-14T23:18:47.969Z,100454.63
2022-08-14T23:21:24.658Z,100442.78
2022-08-14T23:23:55.077Z,100442.06
2022-08-14T23:26:47.145Z,100439.22
2022-08-14T23:29:11.305Z,100427.00
2022-08-14T23:31:39.376Z,100427.81
2022-08-14T23:34:09.027Z,100418.72
2022-08-14T23:36:53.444Z,100403.44
2022-08-14T23:39:24.665Z,100425.91
2022-08-14T23:41:56.475Z,100401.63
2022-08-14T23:44:24.271Z,100402.31
2022-08-14T23:46:57.129Z,100417.72
2022-08-14T23:49:28.674Z,100399.44
2022-08-14T23:52:51.160Z,100395.75
2022-08-14T23:55:01.745Z,100397.19
2022-08-14T23:57:28.693Z,100390.66
2022-08-14T23:59:57.295Z,100382.59
